Time;durP1;ratioP1;P1;durP2;ratioP2;P2;SDS_P1;SDS_P2;PMS_P1;PMS_P2;Temp;Humidity;BMP_temperature;BMP_pressure;BME280_temperature;BME280_humidity;BME280_pressure;Samples;Min_cycle;Max_cycle;Signal;HPM_P1;HPM_P2
2024/03/24 00:01:34;;;;;;;6.45;2.05;;;2.40;99.90;;;;;;5071598;28;20183;-81
2024/03/24 00:04:20;;;;;;;2.55;1.65;;;2.40;1.00;;;;;;5089945;28;20036;-82
2024/03/24 00:07:10;;;;;;;3.63;2.00;;;2.30;1.00;;;;;;5096538;28;20095;-77
2024/03/24 00:09:56;;;;;;;3.60;1.90;;;2.30;30.30;;;;;;5094389;28;20044;-76
2024/03/24 00:12:43;;;;;;;3.33;1.90;;;2.20;99.90;;;;;;5095953;28;20044;-79
2024/03/24 00:15:30;;;;;;;5.32;2.28;;;2.20;99.90;;;;;;5094261;28;20088;-81
2024/03/24 00:18:16;;;;;;;6.13;2.55;;;2.20;99.90;;;;;;5103814;28;20116;-76
2024/03/24 00:21:03;;;;;;;3.03;1.90;;;2.10;1.00;;;;;;5096043;28;20054;-80
2024/03/24 00:23:49;;;;;;;6.55;2.40;;;2.10;1.00;;;;;;5091049;28;20104;-85
2024/03/24 00:26:35;;;;;;;5.78;1.90;;;2.10;87.70;;;;;;5079462;28;20522;-83
2024/03/24 00:29:22;;;;;;;6.00;2.45;;;2.10;99.90;;;;;;5062537;28;20411;-84
2024/03/24 00:32:08;;;;;;;5.75;2.28;;;2.10;99.90;;;;;;5074691;28;20052;-81
2024/03/24 00:34:54;;;;;;;5.90;2.17;;;2.20;99.90;;;;;;5074353;28;20044;-84
2024/03/24 00:37:41;;;;;;;4.40;2.28;;;2.20;1.00;;;;;;5075228;28;20539;-83
2024/03/24 00:40:27;;;;;;;7.93;4.15;;;2.20;1.00;;;;;;5074282;28;20048;-82
2024/03/24 00:43:14;;;;;;;2.35;2.08;;;2.10;46.80;;;;;;5074149;28;20132;-82
2024/03/24 00:46:00;;;;;;;2.70;2.10;;;2.20;99.90;;;;;;5072646;28;20120;-80
2024/03/24 00:48:46;;;;;;;5.30;2.20;;;2.20;99.90;;;;;;5074830;28;20055;-84
2024/03/24 00:51:33;;;;;;;5.75;2.60;;;2.10;99.90;;;;;;5078778;28;20473;-81
2024/03/24 00:54:19;;;;;;;3.13;2.60;;;2.10;99.90;;;;;;5084235;28;20040;-86
2024/03/24 00:57:06;;;;;;;3.38;2.30;;;2.00;1.00;;;;;;5060996;28;20040;-82
2024/03/24 00:59:52;;;;;;;3.13;2.55;;;2.00;1.00;;;;;;5078752;28;20508;-85
2024/03/24 01:02:38;;;;;;;6.03;2.70;;;2.00;59.60;;;;;;5075583;28;20048;-84
2024/03/24 01:05:25;;;;;;;6.15;2.55;;;2.00;99.90;;;;;;5075206;28;20046;-84
2024/03/24 01:08:11;;;;;;;6.07;2.63;;;2.00;99.90;;;;;;5073540;28;20100;-83
2024/03/24 01:11:04;;;;;;;3.45;2.30;;;2.10;1.00;;;;;;5072975;28;20104;-85
2024/03/24 01:13:50;;;;;;;4.35;2.58;;;2.10;1.90;;;;;;5072911;28;20051;-84
2024/03/24 01:16:37;;;;;;;4.22;2.38;;;2.10;99.90;;;;;;5074164;28;20036;-84
2024/03/24 01:19:23;;;;;;;2.78;2.30;;;2.20;99.90;;;;;;5073102;28;20043;-84
2024/03/24 01:22:09;;;;;;;8.25;2.90;;;2.20;99.90;;;;;;5087421;28;20054;-84
2024/03/24 01:24:56;;;;;;;4.53;2.35;;;2.20;99.90;;;;;;5073313;28;20555;-82
2024/03/24 01:27:43;;;;;;;5.53;2.55;;;2.20;1.00;;;;;;5066885;28;20052;-84
2024/03/24 01:30:30;;;;;;;4.20;2.47;;;2.20;36.30;;;;;;5072906;28;20062;-85
2024/03/24 01:33:19;;;;;;;3.40;2.33;;;2.20;99.90;;;;;;5081417;28;20105;-83
2024/03/24 01:36:06;;;;;;;5.03;2.80;;;2.20;99.90;;;;;;5079115;28;20058;-82
2024/03/24 01:38:53;;;;;;;4.28;2.65;;;2.20;1.00;;;;;;5072675;28;20063;-82
2024/03/24 01:41:39;;;;;;;5.70;2.92;;;2.20;1.00;;;;;;5071109;28;20044;-82
2024/03/24 01:44:25;;;;;;;3.97;2.97;;;2.20;35.60;;;;;;5072799;28;20086;-84
2024/03/24 01:47:11;;;;;;;3.00;2.70;;;2.20;99.90;;;;;;5071272;28;20044;-82
2024/03/24 01:49:58;;;;;;;2.88;2.55;;;2.30;99.90;;;;;;5071602;28;20501;-83
2024/03/24 01:52:44;;;;;;;2.85;2.35;;;2.30;99.90;;;;;;5070776;28;20078;-83
2024/03/24 01:55:31;;;;;;;3.28;2.55;;;2.30;99.90;;;;;;5073373;28;20051;-83
2024/03/24 01:58:17;;;;;;;2.63;2.40;;;2.40;99.90;;;;;;5073113;28;20261;-82
2024/03/24 02:01:05;;;;;;;3.40;2.58;;;2.40;1.00;;;;;;5072844;28;20048;-86
2024/03/24 02:03:51;;;;;;;3.42;2.47;;;2.30;1.00;;;;;;5077111;28;20460;-84
2024/03/24 02:06:37;;;;;;;3.13;2.83;;;2.40;25.70;;;;;;5082029;28;20044;-84
2024/03/24 02:09:26;;;;;;;4.75;3.00;;;2.40;96.90;;;;;;5069705;28;20044;-82
2024/03/24 02:12:12;;;;;;;6.38;3.53;;;2.40;99.90;;;;;;5081797;28;20040;-84
2024/03/24 02:14:59;;;;;;;2.83;2.42;;;2.40;99.90;;;;;;5077754;28;20478;-82
2024/03/24 02:17:45;;;;;;;4.45;2.60;;;2.30;99.90;;;;;;5073054;28;20093;-83
2024/03/24 02:20:31;;;;;;;7.25;2.60;;;2.30;99.90;;;;;;5072412;28;20180;-84
2024/03/24 02:23:18;;;;;;;3.25;2.47;;;2.30;99.90;;;;;;5058968;28;20554;-83
2024/03/24 02:26:04;;;;;;;4.53;3.00;;;2.30;99.90;;;;;;5074029;28;20177;-82
2024/03/24 02:28:54;;;;;;;3.40;2.80;;;2.30;99.90;;;;;;5073133;28;20048;-82
2024/03/24 02:31:41;;;;;;;8.27;3.00;;;2.20;99.90;;;;;;5073184;28;20400;-83
2024/03/24 02:34:27;;;;;;;4.18;2.70;;;2.20;99.90;;;;;;5078151;28;20054;-83
2024/03/24 02:37:14;;;;;;;6.35;2.50;;;2.20;99.90;;;;;;5073288;28;20040;-83
2024/03/24 02:40:02;;;;;;;4.22;2.72;;;2.10;99.90;;;;;;5074826;28;20044;-83
2024/03/24 02:42:48;;;;;;;5.20;3.30;;;2.00;99.90;;;;;;5074338;28;20040;-85
2024/03/24 02:45:34;;;;;;;4.63;3.03;;;2.00;99.90;;;;;;5082238;28;20048;-83
2024/03/24 02:48:21;;;;;;;3.65;2.72;;;2.00;99.90;;;;;;5092627;28;20278;-82
2024/03/24 02:51:07;;;;;;;3.35;2.58;;;2.00;99.90;;;;;;5060750;28;20044;-76
2024/03/24 02:53:56;;;;;;;4.70;3.22;;;1.90;99.90;;;;;;5080967;28;20047;-85
2024/03/24 02:56:43;;;;;;;4.20;2.53;;;1.90;99.90;;;;;;5071799;28;20036;-85
2024/03/24 02:59:29;;;;;;;4.32;2.75;;;1.90;99.90;;;;;;5061262;28;20083;-83
2024/03/24 03:02:15;;;;;;;3.80;2.45;;;2.00;99.90;;;;;;5071287;28;20047;-82
2024/03/24 03:05:02;;;;;;;4.15;2.63;;;2.00;99.90;;;;;;5070995;28;20066;-82
2024/03/24 03:07:48;;;;;;;4.90;2.55;;;2.00;99.90;;;;;;5073057;28;20522;-82
2024/03/24 03:10:34;;;;;;;3.20;2.20;;;2.00;99.90;;;;;;5072634;28;20047;-85
2024/03/24 03:13:21;;;;;;;2.38;2.10;;;1.90;99.90;;;;;;5079833;28;20044;-83
2024/03/24 03:16:07;;;;;;;5.20;1.80;;;1.90;28.00;;;;;;5076845;28;20044;-82
2024/03/24 03:18:53;;;;;;;1.95;1.85;;;1.90;1.00;;;;;;5078869;28;20034;-82
2024/03/24 03:21:39;;;;;;;5.13;2.17;;;1.80;1.00;;;;;;5093287;28;20061;-79
2024/03/24 03:24:26;;;;;;;2.00;1.90;;;1.80;1.00;;;;;;5087599;28;20051;-83
2024/03/24 03:27:12;;;;;;;2.78;2.35;;;1.80;1.00;;;;;;5084834;28;20067;-79
2024/03/24 03:29:59;;;;;;;4.78;2.10;;;1.80;1.00;;;;;;5098450;28;20055;-81
2024/03/24 03:32:45;;;;;;;2.53;2.33;;;1.90;1.00;;;;;;5076088;28;20044;-83
2024/03/24 03:35:31;;;;;;;2.45;2.25;;;1.90;99.90;;;;;;5077576;28;20055;-82
2024/03/24 03:38:17;;;;;;;2.92;1.90;;;1.90;99.90;;;;;;5088938;28;20048;-84
2024/03/24 03:41:05;;;;;;;3.90;2.20;;;1.90;99.90;;;;;;5074634;28;20020;-81
2024/03/24 03:43:51;;;;;;;5.25;2.22;;;1.90;99.90;;;;;;5072057;28;20048;-83
2024/03/24 03:46:41;;;;;;;3.30;2.03;;;2.00;99.90;;;;;;5073316;28;20046;-83
2024/03/24 03:49:27;;;;;;;2.40;1.95;;;1.90;99.90;;;;;;5071735;28;20055;-84
2024/03/24 03:52:13;;;;;;;5.07;2.30;;;1.90;75.80;;;;;;5072928;28;20123;-85
2024/03/24 03:55:00;;;;;;;3.17;2.13;;;1.90;36.20;;;;;;5065820;28;20103;-83
2024/03/24 03:57:46;;;;;;;2.08;1.92;;;1.90;1.00;;;;;;5072972;28;20489;-82
2024/03/24 04:00:33;;;;;;;2.65;1.98;;;1.90;1.00;;;;;;5081221;28;20154;-83
2024/03/24 04:03:19;;;;;;;2.95;2.03;;;1.90;1.00;;;;;;5080903;28;20393;-84
2024/03/24 04:06:05;;;;;;;3.38;2.08;;;1.80;1.00;;;;;;5073744;28;20044;-83
2024/03/24 04:08:52;;;;;;;3.17;2.38;;;1.80;99.90;;;;;;5075706;28;20044;-82
2024/03/24 04:11:38;;;;;;;2.55;2.35;;;1.80;99.90;;;;;;5079155;28;20058;-83
2024/03/24 04:14:25;;;;;;;2.22;2.03;;;1.80;99.90;;;;;;5060930;28;20054;-84
2024/03/24 04:17:11;;;;;;;2.70;2.05;;;1.80;99.90;;;;;;5074640;28;20819;-79
2024/03/24 04:20:05;;;;;;;3.83;2.38;;;1.80;1.00;;;;;;5074218;28;20040;-82
2024/03/24 04:22:53;;;;;;;3.72;1.98;;;1.80;1.00;;;;;;5077091;28;20113;-84
2024/03/24 04:25:40;;;;;;;2.45;1.98;;;1.90;1.00;;;;;;5075356;28;20097;-81
2024/03/24 04:28:26;;;;;;;3.78;1.70;;;2.00;99.90;;;;;;5077757;28;20064;-85
2024/03/24 04:31:12;;;;;;;5.47;2.10;;;2.00;99.90;;;;;;5082066;28;20104;-85
2024/03/24 04:33:59;;;;;;;4.90;1.70;;;2.00;65.90;;;;;;5077263;28;20048;-85
2024/03/24 04:36:45;;;;;;;1.92;1.50;;;2.00;1.00;;;;;;5083035;28;20050;-77
2024/03/24 04:39:32;;;;;;;2.28;1.52;;;1.90;99.90;;;;;;5088330;28;20050;-81
2024/03/24 04:42:19;;;;;;;3.22;1.65;;;1.90;99.90;;;;;;5075669;28;20408;-79
2024/03/24 04:45:07;;;;;;;1.55;1.40;;;1.90;99.90;;;;;;5082989;28;20361;-82
2024/03/24 04:47:54;;;;;;;2.15;1.55;;;1.90;1.00;;;;;;5079272;28;20454;-82
2024/03/24 04:50:40;;;;;;;5.40;1.58;;;1.90;1.00;;;;;;5073839;28;20055;-80
2024/03/24 04:53:26;;;;;;;2.28;1.60;;;1.90;99.90;;;;;;5058505;28;20109;-82
2024/03/24 04:56:13;;;;;;;2.70;1.48;;;1.80;99.90;;;;;;5075890;28;20047;-83
2024/03/24 04:58:59;;;;;;;2.65;1.70;;;1.80;99.90;;;;;;5059881;28;20043;-83
2024/03/24 05:01:45;;;;;;;1.73;1.63;;;1.80;99.90;;;;;;5073247;28;20055;-81
2024/03/24 05:04:33;;;;;;;2.67;1.88;;;1.70;99.90;;;;;;5073240;28;20044;-82
2024/03/24 05:07:20;;;;;;;5.15;1.90;;;1.80;99.90;;;;;;5073589;28;20056;-84
2024/03/24 05:10:17;;;;;;;3.15;1.80;;;1.80;99.90;;;;;;5074945;28;20052;-83
2024/03/24 05:13:04;;;;;;;3.92;1.92;;;1.90;99.90;;;;;;5084024;28;20044;-83
2024/03/24 05:15:53;;;;;;;2.83;1.63;;;1.90;99.90;;;;;;5073558;28;20044;-84
2024/03/24 05:18:40;;;;;;;2.67;2.13;;;1.90;99.90;;;;;;5077473;28;20043;-83
2024/03/24 05:21:26;;;;;;;4.50;1.70;;;2.00;99.90;;;;;;5083203;28;20052;-82
2024/03/24 05:24:12;;;;;;;5.20;1.83;;;2.00;1.00;;;;;;5065537;28;20055;-83
2024/03/24 05:27:04;;;;;;;2.97;2.00;;;1.90;1.00;;;;;;5074111;28;20504;-84
2024/03/24 05:29:53;;;;;;;2.55;1.92;;;1.80;1.00;;;;;;5074852;28;20150;-85
2024/03/24 05:32:39;;;;;;;2.08;1.75;;;1.70;99.90;;;;;;5076770;28;20050;-83
2024/03/24 05:35:26;;;;;;;2.15;1.90;;;1.70;99.90;;;;;;5072711;28;20048;-82
2024/03/24 05:38:12;;;;;;;2.15;1.95;;;1.70;99.90;;;;;;5074240;28;20042;-83
2024/03/24 05:41:07;;;;;;;5.55;2.35;;;1.60;1.00;;;;;;5074048;28;20085;-82
2024/03/24 05:43:53;;;;;;;3.22;2.30;;;1.50;1.00;;;;;;5060360;28;20106;-84
2024/03/24 05:46:39;;;;;;;2.25;2.05;;;1.50;99.90;;;;;;5074864;28;20048;-83
2024/03/24 05:49:25;;;;;;;8.68;3.72;;;1.60;1.00;;;;;;5075498;28;20040;-82
2024/03/24 05:52:12;;;;;;;3.78;2.00;;;1.70;99.90;;;;;;5073237;28;20052;-83
2024/03/24 05:54:58;;;;;;;4.63;2.30;;;1.70;99.90;;;;;;5091401;28;20100;-80
2024/03/24 05:57:44;;;;;;;6.82;2.60;;;1.80;1.00;;;;;;5082396;28;20480;-86
2024/03/24 06:00:31;;;;;;;3.10;2.47;;;1.80;1.00;;;;;;5075377;28;20036;-78
2024/03/24 06:03:17;;;;;;;3.75;2.60;;;1.70;26.00;;;;;;5081195;28;20040;-82
2024/03/24 06:06:04;;;;;;;5.43;2.15;;;1.80;99.90;;;;;;5073394;28;20040;-83
2024/03/24 06:08:51;;;;;;;5.20;2.60;;;1.80;99.90;;;;;;5071799;28;20040;-81
2024/03/24 06:11:37;;;;;;;3.03;2.40;;;1.90;99.90;;;;;;5071046;28;20545;-80
2024/03/24 06:14:23;;;;;;;4.20;2.53;;;1.90;99.90;;;;;;5073028;28;20055;-83
2024/03/24 06:17:10;;;;;;;2.80;2.20;;;2.00;99.90;;;;;;5070094;28;20036;-79
2024/03/24 06:19:56;;;;;;;2.83;2.30;;;2.20;99.90;;;;;;5069342;28;20048;-81
2024/03/24 06:22:42;;;;;;;4.35;2.17;;;2.50;99.90;;;;;;5072520;28;20062;-86
2024/03/24 06:25:30;;;;;;;6.18;2.40;;;2.60;99.90;;;;;;5076392;28;20044;-85
2024/03/24 06:28:16;;;;;;;4.85;2.45;;;2.60;99.90;;;;;;5078822;28;20044;-84
2024/03/24 06:31:05;;;;;;;3.22;2.15;;;2.80;99.90;;;;;;5095081;28;20044;-77
2024/03/24 06:33:51;;;;;;;3.47;2.03;;;2.80;1.00;;;;;;5078777;28;20067;-83
2024/03/24 06:36:39;;;;;;;4.53;1.92;;;2.90;99.90;;;;;;5094779;28;20037;-78
2024/03/24 06:39:26;;;;;;;6.28;1.73;;;2.80;21.00;;;;;;5096980;28;20112;-81
2024/03/24 06:42:12;;;;;;;3.72;1.73;;;2.80;99.90;;;;;;5066125;28;20055;-81
2024/03/24 06:45:05;;;;;;;1.60;1.50;;;2.80;99.90;;;;;;5076478;28;20040;-83
2024/03/24 06:47:52;;;;;;;2.10;1.77;;;3.10;99.90;;;;;;5084088;28;20570;-81
2024/03/24 06:50:38;;;;;;;2.97;1.50;;;3.30;1.00;;;;;;5075664;28;20534;-82
2024/03/24 06:53:24;;;;;;;1.80;1.70;;;3.10;1.00;;;;;;5059862;28;20085;-84
2024/03/24 06:56:11;;;;;;;2.55;1.60;;;3.10;99.90;;;;;;5072539;28;20040;-83
2024/03/24 06:59:00;;;;;;;2.92;1.58;;;3.10;99.90;;;;;;5072596;28;20040;-84
2024/03/24 07:01:46;;;;;;;2.60;1.52;;;3.00;1.00;;;;;;5073085;28;20477;-86
2024/03/24 07:04:35;;;;;;;3.33;1.50;;;3.10;99.90;;;;;;5073734;28;20041;-84
2024/03/24 07:07:24;;;;;;;5.30;1.60;;;3.30;99.90;;;;;;5075559;28;20119;-86
2024/03/24 07:10:10;;;;;;;3.03;1.60;;;3.50;1.00;;;;;;5082992;28;20052;-86
2024/03/24 07:12:57;;;;;;;4.95;2.65;;;3.70;99.90;;;;;;5063538;28;20229;-83
2024/03/24 07:15:43;;;;;;;1.80;1.48;;;3.80;93.90;;;;;;5074976;28;20333;-84
2024/03/24 07:18:29;;;;;;;3.45;1.67;;;3.80;99.90;;;;;;5100384;28;20077;-82
2024/03/24 07:21:17;;;;;;;7.22;1.85;;;3.80;93.50;;;;;;5086198;28;20262;-82
2024/03/24 07:24:05;;;;;;;2.80;1.42;;;4.10;1.00;;;;;;5089643;28;20050;-83
2024/03/24 07:26:51;;;;;;;3.47;2.00;;;4.70;99.90;;;;;;5079349;28;20059;-80
2024/03/24 07:29:37;;;;;;;5.68;2.05;;;4.50;1.00;;;;;;5091716;28;20044;-82
2024/03/24 07:32:27;;;;;;;2.60;1.80;;;4.20;99.90;;;;;;5090879;28;20070;-85
2024/03/24 07:35:13;;;;;;;3.97;2.30;;;4.00;99.90;;;;;;5093632;28;20104;-82
2024/03/24 07:37:59;;;;;;;2.72;2.10;;;4.40;99.90;;;;;;5094786;28;20040;-79
2024/03/24 07:40:46;;;;;;;4.07;1.98;;;4.10;14.00;;;;;;5088983;28;20040;-80
2024/03/24 07:43:32;;;;;;;4.05;1.95;;;4.00;2.30;;;;;;5103350;28;20066;-79
2024/03/24 07:46:19;;;;;;;4.90;2.13;;;4.00;1.00;;;;;;5093224;28;20044;-82
2024/03/24 07:49:05;;;;;;;6.70;2.60;;;3.80;1.00;;;;;;5090941;28;20412;-83
2024/03/24 07:51:51;;;;;;;5.10;2.33;;;3.80;1.00;;;;;;5090361;28;20050;-82
2024/03/24 07:54:38;;;;;;;10.50;2.58;;;4.30;1.00;;;;;;5095629;28;20093;-79
2024/03/24 07:57:25;;;;;;;3.90;1.73;;;5.10;1.00;;;;;;5110359;28;20047;-84
2024/03/24 08:00:12;;;;;;;6.10;2.03;;;5.70;99.90;;;;;;5087969;28;20164;-82
2024/03/24 08:02:58;;;;;;;5.68;2.10;;;6.00;99.90;;;;;;5105304;28;20038;-78
2024/03/24 08:05:45;;;;;;;2.15;1.52;;;5.90;99.90;;;;;;5090423;28;20117;-83
2024/03/24 08:08:31;;;;;;;3.85;1.90;;;5.60;99.90;;;;;;5090500;28;20054;-84
2024/03/24 08:11:18;;;;;;;4.47;2.13;;;5.50;32.80;;;;;;5090238;28;20028;-81
2024/03/24 08:14:05;;;;;;;4.80;1.80;;;5.50;1.00;;;;;;5090629;28;20032;-82
2024/03/24 08:16:54;;;;;;;3.45;1.45;;;5.70;1.00;;;;;;5093830;28;20024;-84
2024/03/24 08:19:40;;;;;;;3.13;1.80;;;6.50;1.00;;;;;;5105224;28;20062;-84
2024/03/24 08:22:29;;;;;;;6.80;1.70;;;6.70;1.00;;;;;;5097989;28;20044;-84
2024/03/24 08:25:18;;;;;;;9.02;2.38;;;6.40;99.90;;;;;;5084801;28;20446;-79
2024/03/24 08:28:08;;;;;;;5.30;2.03;;;6.20;99.90;;;;;;5106437;28;20040;-77
2024/03/24 08:30:54;;;;;;;4.00;1.88;;;6.40;99.90;;;;;;5095499;28;20118;-80
2024/03/24 08:33:43;;;;;;;1.95;1.58;;;7.10;99.90;;;;;;5103329;28;20044;-77
2024/03/24 08:36:32;;;;;;;2.60;1.20;;;7.70;99.90;;;;;;5107248;28;20105;-79
2024/03/24 08:39:22;;;;;;;3.00;1.80;;;7.50;99.90;;;;;;5090600;28;20044;-84
2024/03/24 08:42:08;;;;;;;4.35;1.67;;;7.20;99.90;;;;;;5087185;28;20036;-85
2024/03/24 08:44:58;;;;;;;4.22;1.88;;;6.70;99.90;;;;;;5100734;28;20044;-82
2024/03/24 08:47:44;;;;;;;3.75;1.75;;;6.70;99.90;;;;;;5107108;28;20112;-84
2024/03/24 08:50:30;;;;;;;3.65;1.73;;;6.40;99.90;;;;;;5102358;28;20044;-83
2024/03/24 08:53:20;;;;;;;2.50;1.95;;;6.00;99.90;;;;;;5099302;28;20044;-85
2024/03/24 08:56:07;;;;;;;5.70;2.00;;;6.00;99.90;;;;;;5095140;28;20726;-82
2024/03/24 08:58:53;;;;;;;4.70;2.33;;;6.70;99.90;;;;;;5096599;28;20056;-81
2024/03/24 09:01:39;;;;;;;2.47;1.80;;;7.20;99.90;;;;;;5095511;28;20497;-81
2024/03/24 09:04:26;;;;;;;4.00;1.70;;;7.30;99.90;;;;;;5095991;28;20062;-85
2024/03/24 09:07:13;;;;;;;2.40;1.73;;;6.90;99.90;;;;;;5089010;28;20242;-83
2024/03/24 09:09:59;;;;;;;3.90;1.88;;;6.90;99.90;;;;;;5099431;28;20547;-82
2024/03/24 09:12:45;;;;;;;5.68;2.08;;;6.70;99.90;;;;;;5090020;28;20127;-81
2024/03/24 09:15:32;;;;;;;5.32;2.22;;;6.50;99.90;;;;;;5096027;28;20503;-81
2024/03/24 09:18:18;;;;;;;4.88;2.30;;;6.20;99.90;;;;;;5100693;28;20040;-83
2024/03/24 09:21:05;;;;;;;5.28;2.20;;;5.90;99.90;;;;;;5088857;28;20065;-78
2024/03/24 09:23:52;;;;;;;7.00;2.03;;;6.20;99.90;;;;;;5097468;28;20048;-82
2024/03/24 09:26:38;;;;;;;4.30;1.95;;;7.30;99.90;;;;;;5088396;28;20058;-81
2024/03/24 09:29:25;;;;;;;5.28;2.63;;;7.70;99.90;;;;;;5089925;28;20044;-82
2024/03/24 09:32:12;;;;;;;4.70;2.45;;;7.60;99.90;;;;;;5089570;28;20742;-85
2024/03/24 09:34:58;;;;;;;5.82;2.13;;;7.20;99.90;;;;;;5082663;28;20052;-83
2024/03/24 09:37:45;;;;;;;4.30;1.88;;;6.80;99.90;;;;;;5098033;28;20047;-80
2024/03/24 09:40:31;;;;;;;5.70;2.40;;;6.30;99.90;;;;;;5103435;28;20101;-82
2024/03/24 09:43:17;;;;;;;6.55;2.58;;;6.10;99.90;;;;;;5084361;28;20126;-82
2024/03/24 09:46:07;;;;;;;8.80;2.70;;;6.00;99.90;;;;;;5105318;28;20048;-80
2024/03/24 09:48:55;;;;;;;7.03;2.35;;;5.60;99.90;;;;;;5097586;28;20052;-83
2024/03/24 09:51:44;;;;;;;3.47;2.40;;;5.50;99.90;;;;;;5083103;28;20535;-81
2024/03/24 09:54:30;;;;;;;5.07;2.30;;;5.30;99.90;;;;;;5104123;28;20032;-76
2024/03/24 09:57:19;;;;;;;6.60;2.20;;;5.30;99.90;;;;;;5072956;28;20040;-82
2024/03/24 10:00:07;;;;;;;6.38;2.47;;;5.40;99.90;;;;;;5097990;28;20070;-83
2024/03/24 10:02:54;;;;;;;6.28;3.40;;;5.70;99.90;;;;;;5092428;28;20040;-81
2024/03/24 10:05:42;;;;;;;5.57;2.60;;;5.90;99.90;;;;;;5088745;28;20073;-85
2024/03/24 10:08:32;;;;;;;8.18;2.72;;;6.10;99.90;;;;;;5075743;28;20043;-83
2024/03/24 10:11:33;;;;;;;4.32;2.38;;;6.60;99.90;;;;;;5088409;28;20059;-82
2024/03/24 10:14:27;;;;;;;7.20;2.90;;;6.40;99.90;;;;;;5075226;28;20058;-83
2024/03/24 10:17:19;;;;;;;6.20;2.20;;;6.30;99.90;;;;;;5076291;28;20043;-84
2024/03/24 10:20:06;;;;;;;8.15;2.75;;;6.10;99.90;;;;;;5073241;28;20047;-84
2024/03/24 10:22:54;;;;;;;7.00;2.25;;;5.60;99.90;;;;;;5091730;28;20058;-84
2024/03/24 10:25:40;;;;;;;6.97;2.08;;;5.50;99.90;;;;;;5073715;28;20047;-83
2024/03/24 10:28:29;;;;;;;5.72;2.20;;;5.70;99.90;;;;;;5076888;28;20413;-83
2024/03/24 10:31:17;;;;;;;4.45;1.95;;;6.10;99.90;;;;;;5088026;28;20044;-81
2024/03/24 10:34:03;;;;;;;6.90;2.38;;;6.20;99.90;;;;;;5088333;28;20044;-81
2024/03/24 10:36:50;;;;;;;5.30;2.20;;;6.30;99.90;;;;;;5093925;28;20047;-85
2024/03/24 10:39:37;;;;;;;4.35;2.08;;;6.70;99.90;;;;;;5083235;28;20044;-85
2024/03/24 10:42:24;;;;;;;6.25;2.25;;;7.50;99.90;;;;;;5078354;28;20040;-85
2024/03/24 10:45:16;;;;;;;2.97;1.90;;;7.20;99.90;;;;;;5074690;28;20044;-85
2024/03/24 10:48:04;;;;;;;9.77;2.83;;;7.00;99.90;;;;;;5095946;28;20051;-83
2024/03/24 10:50:53;;;;;;;4.35;2.40;;;6.70;99.90;;;;;;5086516;28;20056;-82
2024/03/24 10:53:41;;;;;;;6.88;2.47;;;6.60;99.90;;;;;;5088247;28;20048;-83
2024/03/24 10:56:29;;;;;;;7.50;2.83;;;7.00;99.90;;;;;;5075367;28;20044;-82
2024/03/24 10:59:20;;;;;;;7.65;3.05;;;7.00;99.90;;;;;;5060768;28;20453;-82
2024/03/24 11:02:13;;;;;;;8.52;3.22;;;6.80;99.90;;;;;;5089532;28;20085;-83
2024/03/24 11:05:01;;;;;;;5.38;2.75;;;6.60;99.90;;;;;;5066187;28;20040;-83
2024/03/24 11:07:48;;;;;;;7.35;2.60;;;6.50;99.90;;;;;;5075533;28;20044;-84
2024/03/24 11:10:35;;;;;;;7.55;2.65;;;6.30;99.90;;;;;;5086965;28;20048;-82
2024/03/24 11:13:28;;;;;;;8.02;2.65;;;6.30;99.90;;;;;;5089160;28;20054;-83
2024/03/24 11:16:14;;;;;;;4.38;2.47;;;6.10;99.90;;;;;;5090338;28;20052;-83
2024/03/24 11:19:10;;;;;;;6.05;2.63;;;5.90;99.90;;;;;;5087769;28;20151;-85
2024/03/24 11:22:00;;;;;;;8.02;2.80;;;5.80;99.90;;;;;;5097381;28;20048;-84
2024/03/24 11:24:46;;;;;;;7.57;2.45;;;5.90;99.90;;;;;;5089480;28;20040;-81
2024/03/24 11:27:41;;;;;;;9.80;2.63;;;5.90;99.90;;;;;;5063795;28;20040;-82
2024/03/24 11:30:29;;;;;;;4.82;2.50;;;5.80;99.90;;;;;;5085406;28;20051;-84
2024/03/24 11:33:15;;;;;;;4.40;2.75;;;5.50;99.90;;;;;;5086998;28;20043;-84
2024/03/24 11:36:17;;;;;;;4.90;2.72;;;5.50;99.90;;;;;;5095793;28;20048;-84
2024/03/24 11:39:11;;;;;;;6.45;2.88;;;5.60;99.90;;;;;;5089063;28;20052;-80
2024/03/24 11:42:08;;;;;;;5.47;2.35;;;5.80;99.90;;;;;;5078895;28;20540;-81
2024/03/24 11:44:55;;;;;;;4.60;2.03;;;5.90;99.90;;;;;;5076719;28;20044;-82
2024/03/24 11:47:41;;;;;;;7.20;2.53;;;5.80;99.90;;;;;;5078264;28;20066;-81
2024/03/24 11:50:27;;;;;;;5.00;2.50;;;5.60;99.90;;;;;;5074656;28;20079;-82
2024/03/24 11:53:18;;;;;;;4.32;2.75;;;5.80;99.90;;;;;;5064499;28;20048;-85
2024/03/24 11:56:06;;;;;;;8.75;2.55;;;5.90;99.90;;;;;;5078369;28;20048;-84
2024/03/24 11:58:54;;;;;;;6.10;2.35;;;5.80;99.90;;;;;;5081192;28;20056;-82
2024/03/24 12:01:40;;;;;;;7.63;3.05;;;5.60;99.90;;;;;;5080114;28;20032;-82
2024/03/24 12:04:27;;;;;;;4.70;2.47;;;5.50;99.90;;;;;;5084963;28;20062;-84
2024/03/24 12:07:13;;;;;;;4.90;2.40;;;5.30;99.90;;;;;;5089169;28;20048;-81
2024/03/24 12:09:59;;;;;;;7.18;2.22;;;5.30;99.90;;;;;;5066703;28;20051;-83
2024/03/24 12:12:46;;;;;;;5.53;2.60;;;5.40;99.90;;;;;;5064064;28;20048;-83
2024/03/24 12:15:32;;;;;;;5.60;2.65;;;5.30;99.90;;;;;;5084843;28;20048;-85
2024/03/24 12:18:19;;;;;;;3.88;2.10;;;5.30;99.90;;;;;;5085713;28;20047;-85
2024/03/24 12:21:09;;;;;;;4.43;2.15;;;5.40;99.90;;;;;;5063488;28;20046;-85
2024/03/24 12:23:55;;;;;;;6.50;2.40;;;5.40;99.90;;;;;;5072045;28;20099;-83
2024/03/24 12:26:41;;;;;;;7.63;2.38;;;5.50;99.90;;;;;;5063753;28;20437;-82
2024/03/24 12:29:50;;;;;;;4.25;2.30;;;5.70;99.90;;;;;;5077788;28;20040;-85
2024/03/24 12:32:38;;;;;;;5.35;2.42;;;5.60;99.90;;;;;;5077770;28;20085;-82
2024/03/24 12:35:26;;;;;;;6.65;2.45;;;5.80;99.90;;;;;;5079156;28;20509;-82
2024/03/24 12:38:12;;;;;;;7.75;2.70;;;5.80;99.90;;;;;;5080079;28;20048;-84
2024/03/24 12:40:59;;;;;;;5.40;2.55;;;5.90;99.90;;;;;;5071659;28;20126;-82
2024/03/24 12:43:53;;;;;;;10.52;2.83;;;6.00;99.90;;;;;;5072135;28;20044;-79
2024/03/24 12:46:40;;;;;;;6.22;2.83;;;6.60;99.90;;;;;;5093010;28;20112;-84
2024/03/24 12:49:33;;;;;;;6.07;2.40;;;6.80;99.90;;;;;;5087379;28;20042;-84
2024/03/24 12:52:20;;;;;;;8.10;2.92;;;7.10;99.90;;;;;;5091428;28;20058;-85
2024/03/24 12:55:10;;;;;;;4.90;2.38;;;7.00;99.90;;;;;;5092077;28;20040;-84
2024/03/24 12:58:02;;;;;;;6.22;2.92;;;6.50;99.90;;;;;;5101535;28;20034;-84
2024/03/24 13:00:50;;;;;;;7.30;2.95;;;6.30;99.90;;;;;;5077232;28;20051;-84
2024/03/24 13:03:38;;;;;;;7.07;2.65;;;6.00;99.90;;;;;;5091131;28;20054;-75
2024/03/24 13:06:28;;;;;;;5.18;2.30;;;5.80;99.90;;;;;;5090269;28;20044;-82
2024/03/24 13:09:15;;;;;;;7.43;2.75;;;5.50;99.90;;;;;;5082915;28;20040;-82
2024/03/24 13:12:02;;;;;;;4.32;2.20;;;5.40;99.90;;;;;;5083920;28;20050;-81
2024/03/24 13:14:49;;;;;;;6.07;2.13;;;5.40;99.90;;;;;;5088331;28;20044;-81
2024/03/24 13:17:36;;;;;;;7.72;2.60;;;5.70;99.90;;;;;;5065697;28;20069;-85
2024/03/24 13:20:26;;;;;;;6.30;2.40;;;5.70;99.90;;;;;;5076967;28;20044;-80
2024/03/24 13:23:19;;;;;;;9.35;3.20;;;5.70;99.90;;;;;;5081797;28;20050;-81
2024/03/24 13:26:25;;;;;;;7.45;2.60;;;5.40;99.90;;;;;;5067605;28;20042;-83
2024/03/24 13:29:37;;;;;;;11.68;3.15;;;4.70;99.90;;;;;;5092693;28;20028;-83
2024/03/24 13:32:32;;;;;;;10.65;3.80;;;4.20;1.00;;;;;;5076573;28;20044;-83
2024/03/24 13:35:22;;;;;;;7.72;4.05;;;4.10;1.00;;;;;;5061201;28;20036;-82
2024/03/24 13:38:31;;;;;;;8.77;3.90;;;4.30;99.90;;;;;;5075039;28;20047;-83
2024/03/24 13:41:42;;;;;;;9.13;3.40;;;5.00;99.90;;;;;;5062045;28;20044;-82
2024/03/24 13:44:40;;;;;;;7.10;2.90;;;5.80;99.90;;;;;;5063370;28;20039;-82
2024/03/24 13:47:32;;;;;;;4.97;2.22;;;7.10;99.90;;;;;;5075848;28;20054;-80
2024/03/24 13:50:18;;;;;;;6.20;2.27;;;7.60;75.20;;;;;;5077690;28;20044;-80
2024/03/24 13:53:06;;;;;;;5.38;1.77;;;7.30;1.00;;;;;;5063372;28;20058;-81
2024/03/24 13:55:58;;;;;;;6.60;2.20;;;7.40;1.00;;;;;;5077977;28;20048;-81
2024/03/24 13:58:44;;;;;;;3.72;2.00;;;7.60;1.00;;;;;;5078721;28;20040;-80
2024/03/24 14:01:31;;;;;;;5.43;1.80;;;9.10;1.00;;;;;;5077452;28;20065;-82
2024/03/24 14:04:18;;;;;;;2.72;1.77;;;9.40;99.90;;;;;;5079313;28;20062;-81
2024/03/24 14:07:07;;;;;;;2.08;1.40;;;10.20;99.90;;;;;;5078323;28;20350;-80
2024/03/24 14:09:56;;;;;;;3.13;1.45;;;10.10;99.90;;;;;;5080810;28;20048;-80
2024/03/24 14:13:05;;;;;;;3.83;1.60;;;10.10;99.90;;;;;;5084801;28;20085;-82
2024/03/24 14:16:02;;;;;;;1.40;1.25;;;10.10;99.90;;;;;;5078124;28;20048;-83
2024/03/24 14:19:04;;;;;;;2.45;1.33;;;10.70;99.90;;;;;;5078418;28;20452;-81
2024/03/24 14:22:14;;;;;;;1.42;1.20;;;10.70;99.90;;;;;;5061943;28;20044;-79
2024/03/24 14:25:06;;;;;;;3.40;1.70;;;11.30;99.90;;;;;;5097167;28;20046;-80
2024/03/24 14:27:54;;;;;;;3.55;1.73;;;11.30;99.90;;;;;;5090001;28;20046;-82
2024/03/24 14:30:42;;;;;;;4.97;1.75;;;11.60;90.90;;;;;;5095383;28;20052;-80
2024/03/24 14:33:29;;;;;;;5.85;1.95;;;11.60;66.70;;;;;;5062163;28;20044;-81
2024/03/24 14:36:47;;;;;;;4.72;2.00;;;10.20;51.80;;;;;;5080409;28;20078;-78
2024/03/24 14:39:59;;;;;;;5.00;1.73;;;8.30;71.10;;;;;;5082232;28;20515;-79
2024/03/24 14:43:07;;;;;;;3.53;1.88;;;7.30;99.90;;;;;;5082419;28;20043;-81
2024/03/24 14:46:09;;;;;;;3.90;2.10;;;7.30;99.90;;;;;;5101129;28;20040;-82
2024/03/24 14:48:56;;;;;;;7.72;2.40;;;6.90;99.90;;;;;;5092057;28;20048;-82